Time;durP1;ratioP1;P1;durP2;ratioP2;P2;SDS_P1;SDS_P2;PMS_P1;PMS_P2;Temp;Humidity;BMP_temperature;BMP_pressure;BME280_temperature;BME280_humidity;BME280_pressure;Samples;Min_cycle;Max_cycle;Signal;HPM_P1;HPM_P2
2022/08/30 00:03:22;;;;;;;10.27;8.90;;;;;;;;;;5016497;28;20452;-63
2022/08/30 00:05:48;;;;;;;10.30;9.20;;;;;;;;;;5016244;28;20775;-64
2022/08/30 00:08:15;;;;;;;8.93;8.30;;;;;;;;;;5016175;28;20437;-64
2022/08/30 00:10:41;;;;;;;9.77;8.87;;;;;;;;;;5016163;28;20402;-66
2022/08/30 00:13:09;;;;;;;10.60;8.40;;;;;;;;;;5016111;28;20866;-63
2022/08/30 00:15:35;;;;;;;9.53;8.77;;;;;;;;;;5015998;28;20457;-64
2022/08/30 00:18:01;;;;;;;9.83;7.87;;;;;;;;;;5016062;28;20474;-63
2022/08/30 00:20:29;;;;;;;11.83;9.53;;;;;;;;;;5016030;28;20398;-64
2022/08/30 00:22:55;;;;;;;9.70;8.90;;;;;;;;;;5015961;28;20417;-63
2022/08/30 00:25:21;;;;;;;9.80;9.00;;;;;;;;;;5015904;28;20565;-63
2022/08/30 00:27:48;;;;;;;9.93;9.23;;;;;;;;;;5014740;28;20417;-63
2022/08/30 00:30:14;;;;;;;9.57;8.70;;;;;;;;;;5016012;28;20403;-63
2022/08/30 00:32:40;;;;;;;10.90;9.13;;;;;;;;;;5015809;28;20415;-64
2022/08/30 00:35:07;;;;;;;10.80;9.70;;;;;;;;;;5015603;28;20544;-63
2022/08/30 00:37:34;;;;;;;10.97;9.80;;;;;;;;;;5015925;28;20424;-63
2022/08/30 00:40:00;;;;;;;11.23;10.20;;;;;;;;;;5015577;28;20400;-64
2022/08/30 00:42:26;;;;;;;11.00;10.00;;;;;;;;;;5015563;28;20412;-63
2022/08/30 00:44:52;;;;;;;11.23;10.13;;;;;;;;;;5015515;28;20894;-64
2022/08/30 00:47:18;;;;;;;16.10;10.90;;;;;;;;;;5015488;28;20464;-64
2022/08/30 00:49:48;;;;;;;12.80;9.83;;;;;;;;;;5015464;28;20400;-63
2022/08/30 00:52:15;;;;;;;11.63;10.43;;;;;;;;;;5015196;28;20506;-63
2022/08/30 00:54:44;;;;;;;16.07;10.30;;;;;;;;;;5015372;28;20406;-64
2022/08/30 00:57:10;;;;;;;14.60;9.47;;;;;;;;;;5015284;28;20471;-63
2022/08/30 00:59:37;;;;;;;11.43;10.43;;;;;;;;;;5015212;28;20430;-63
2022/08/30 01:02:03;;;;;;;11.67;10.57;;;;;;;;;;5015416;28;20405;-64
2022/08/30 01:04:29;;;;;;;10.80;9.70;;;;;;;;;;5015164;28;20412;-63
2022/08/30 01:06:55;;;;;;;12.73;10.10;;;;;;;;;;5015265;28;20412;-64
2022/08/30 01:09:22;;;;;;;10.27;8.93;;;;;;;;;;5015030;28;20489;-64
2022/08/30 01:11:48;;;;;;;13.53;9.70;;;;;;;;;;5014981;28;20429;-64
2022/08/30 01:14:16;;;;;;;12.03;9.40;;;;;;;;;;5014994;28;20438;-63
2022/08/30 01:16:42;;;;;;;11.23;10.23;;;;;;;;;;5014900;28;20520;-63
2022/08/30 01:19:21;;;;;;;11.87;10.00;;;;;;;;;;5014914;28;20947;-64
2022/08/30 01:21:49;;;;;;;11.17;10.13;;;;;;;;;;5014843;28;20497;-63
2022/08/30 01:24:15;;;;;;;18.37;9.60;;;;;;;;;;5014847;28;20762;-63
2022/08/30 01:26:41;;;;;;;9.50;8.80;;;;;;;;;;5014979;28;20403;-64
2022/08/30 01:29:09;;;;;;;15.17;10.13;;;;;;;;;;5014692;28;20399;-63
2022/08/30 01:31:35;;;;;;;11.40;10.40;;;;;;;;;;5014572;28;20422;-63
2022/08/30 01:34:04;;;;;;;11.60;10.40;;;;;;;;;;5014700;28;20406;-63
2022/08/30 01:36:30;;;;;;;11.20;10.20;;;;;;;;;;5014464;28;20474;-63
2022/08/30 01:38:57;;;;;;;11.73;10.70;;;;;;;;;;5014240;28;20411;-63
2022/08/30 01:41:26;;;;;;;11.20;10.10;;;;;;;;;;5014485;28;20418;-63
2022/08/30 01:43:53;;;;;;;12.70;11.60;;;;;;;;;;5014515;28;20406;-64
2022/08/30 01:46:22;;;;;;;17.83;11.40;;;;;;;;;;5014427;28;20796;-63
2022/08/30 01:48:48;;;;;;;12.50;11.03;;;;;;;;;;5014346;28;20404;-63
2022/08/30 01:51:14;;;;;;;14.00;10.40;;;;;;;;;;5014198;28;20950;-63
2022/08/30 01:53:41;;;;;;;10.93;9.97;;;;;;;;;;5014364;28;20407;-63
2022/08/30 01:56:07;;;;;;;13.50;9.93;;;;;;;;;;5014152;28;20485;-63
2022/08/30 01:58:34;;;;;;;9.70;8.80;;;;;;;;;;5014182;28;20399;-63
2022/08/30 02:01:00;;;;;;;13.03;9.83;;;;;;;;;;5014226;28;20425;-63
2022/08/30 02:03:29;;;;;;;11.50;10.40;;;;;;;;;;5014386;28;20402;-63
2022/08/30 02:05:55;;;;;;;13.47;10.23;;;;;;;;;;5014105;28;20394;-63
2022/08/30 02:08:21;;;;;;;13.67;9.33;;;;;;;;;;5014031;28;20399;-63
2022/08/30 02:10:47;;;;;;;14.97;10.00;;;;;;;;;;5014047;28;20412;-64
2022/08/30 02:13:13;;;;;;;11.93;9.40;;;;;;;;;;5014024;28;20464;-64
2022/08/30 02:15:39;;;;;;;9.97;9.00;;;;;;;;;;5013975;28;20956;-63
2022/08/30 02:18:05;;;;;;;10.63;9.57;;;;;;;;;;5013937;28;20766;-63
2022/08/30 02:20:31;;;;;;;10.07;9.17;;;;;;;;;;5013920;28;20417;-63
2022/08/30 02:22:57;;;;;;;17.73;9.33;;;;;;;;;;5013912;28;20409;-63
2022/08/30 02:25:23;;;;;;;10.13;9.33;;;;;;;;;;5013821;28;20407;-63
2022/08/30 02:27:49;;;;;;;11.00;10.00;;;;;;;;;;5013822;28;20407;-63
2022/08/30 02:30:15;;;;;;;10.07;9.17;;;;;;;;;;5013749;28;20878;-64
2022/08/30 02:32:40;;;;;;;10.40;9.40;;;;;;;;;;5014054;28;20414;-63
2022/08/30 02:35:07;;;;;;;10.07;9.07;;;;;;;;;;5013693;28;20439;-63
2022/08/30 02:37:32;;;;;;;15.10;9.63;;;;;;;;;;5013973;28;20746;-63
2022/08/30 02:39:59;;;;;;;10.10;9.10;;;;;;;;;;5013755;28;20417;-63
2022/08/30 02:42:25;;;;;;;13.23;9.60;;;;;;;;;;5013982;28;20425;-64
2022/08/30 02:44:50;;;;;;;10.60;9.63;;;;;;;;;;5013644;28;20402;-63
2022/08/30 02:47:16;;;;;;;10.43;9.30;;;;;;;;;;5013621;28;20561;-63
2022/08/30 02:49:42;;;;;;;10.33;9.37;;;;;;;;;;5013557;28;20418;-65
2022/08/30 02:52:08;;;;;;;10.47;9.47;;;;;;;;;;5015842;28;20548;-63
2022/08/30 02:54:34;;;;;;;9.60;8.60;;;;;;;;;;5017601;28;20415;-63
2022/08/30 02:57:05;;;;;;;11.17;10.20;;;;;;;;;;5017390;28;20519;-63
2022/08/30 02:59:31;;;;;;;11.57;10.50;;;;;;;;;;5017780;28;20495;-64
2022/08/30 03:01:57;;;;;;;11.43;10.00;;;;;;;;;;5017423;28;20846;-63
2022/08/30 03:04:23;;;;;;;9.80;8.80;;;;;;;;;;5017446;28;20399;-63
2022/08/30 03:06:49;;;;;;;12.93;9.17;;;;;;;;;;5017348;28;20766;-63
2022/08/30 03:09:15;;;;;;;11.00;9.87;;;;;;;;;;5017353;28;20405;-63
2022/08/30 03:11:41;;;;;;;9.67;8.77;;;;;;;;;;5017210;28;20408;-63
2022/08/30 03:14:07;;;;;;;16.70;10.03;;;;;;;;;;5017329;28;20420;-63
2022/08/30 03:16:33;;;;;;;10.80;9.67;;;;;;;;;;5017111;28;20478;-63
2022/08/30 03:18:59;;;;;;;11.03;10.00;;;;;;;;;;5017184;28;20459;-63
2022/08/30 03:21:25;;;;;;;11.30;10.20;;;;;;;;;;5017126;28;20900;-63
2022/08/30 03:23:51;;;;;;;10.63;9.60;;;;;;;;;;5017083;28;20405;-63
2022/08/30 03:26:17;;;;;;;10.13;9.13;;;;;;;;;;5016995;28;20421;-63
2022/08/30 03:28:43;;;;;;;9.67;8.77;;;;;;;;;;5016955;28;20440;-63
2022/08/30 03:31:09;;;;;;;11.10;9.90;;;;;;;;;;5016896;28;20912;-63
2022/08/30 03:33:35;;;;;;;10.73;9.70;;;;;;;;;;5016877;28;20401;-63
2022/08/30 03:36:01;;;;;;;10.20;9.27;;;;;;;;;;5016697;28;20473;-63
2022/08/30 03:38:27;;;;;;;11.10;10.03;;;;;;;;;;5016817;28;20410;-63
2022/08/30 03:40:53;;;;;;;11.30;10.30;;;;;;;;;;5016722;28;20794;-64
2022/08/30 03:43:19;;;;;;;11.30;10.40;;;;;;;;;;5016677;28;20473;-63
2022/08/30 03:45:45;;;;;;;10.43;9.30;;;;;;;;;;5016670;28;20446;-64
2022/08/30 03:48:11;;;;;;;11.63;9.20;;;;;;;;;;5016634;28;20433;-63
2022/08/30 03:50:39;;;;;;;13.43;10.13;;;;;;;;;;5016540;28;20463;-63
2022/08/30 03:53:05;;;;;;;12.60;10.07;;;;;;;;;;5016453;28;20815;-63
2022/08/30 03:55:31;;;;;;;13.53;9.63;;;;;;;;;;5016343;28;20962;-63
2022/08/30 03:57:57;;;;;;;11.70;9.43;;;;;;;;;;5016473;28;20409;-63
2022/08/30 04:00:23;;;;;;;11.90;9.60;;;;;;;;;;5016321;28;20429;-63
2022/08/30 04:02:49;;;;;;;12.23;9.13;;;;;;;;;;5016101;28;20447;-63
2022/08/30 04:05:15;;;;;;;12.13;8.77;;;;;;;;;;5016288;28;20860;-63
2022/08/30 04:07:41;;;;;;;12.63;8.43;;;;;;;;;;5016240;28;20405;-64
2022/08/30 04:10:08;;;;;;;17.80;9.30;;;;;;;;;;5016146;28;20413;-63
2022/08/30 04:12:35;;;;;;;9.87;8.97;;;;;;;;;;5016126;28;20594;-63
2022/08/30 04:15:01;;;;;;;10.10;9.17;;;;;;;;;;5016294;28;20739;-63
2022/08/30 04:17:27;;;;;;;10.43;9.13;;;;;;;;;;5016116;28;20425;-63
2022/08/30 04:19:53;;;;;;;10.27;9.23;;;;;;;;;;5016222;28;20461;-63
2022/08/30 04:22:20;;;;;;;11.17;9.87;;;;;;;;;;5015838;28;20751;-63
2022/08/30 04:24:46;;;;;;;12.53;9.20;;;;;;;;;;5016014;28;20410;-63
2022/08/30 04:27:12;;;;;;;13.70;9.40;;;;;;;;;;5015882;28;20405;-63
2022/08/30 04:29:38;;;;;;;14.10;9.07;;;;;;;;;;5016026;28;20409;-63
2022/08/30 04:32:04;;;;;;;17.00;10.27;;;;;;;;;;5015751;28;20434;-63
2022/08/30 04:34:30;;;;;;;10.30;8.77;;;;;;;;;;5015754;28;20405;-64
2022/08/30 04:36:56;;;;;;;12.17;9.20;;;;;;;;;;5015640;28;20507;-63
2022/08/30 04:39:22;;;;;;;12.20;9.00;;;;;;;;;;5015641;28;20438;-64
2022/08/30 04:41:48;;;;;;;13.53;9.13;;;;;;;;;;5015610;28;20768;-65
2022/08/30 04:44:14;;;;;;;9.80;9.07;;;;;;;;;;5015514;28;20406;-64
2022/08/30 04:46:40;;;;;;;9.40;8.47;;;;;;;;;;5015529;28;20412;-65
2022/08/30 04:49:07;;;;;;;11.93;8.40;;;;;;;;;;5015454;28;20497;-65
2022/08/30 04:51:33;;;;;;;10.20;8.27;;;;;;;;;;5015281;28;20570;-64
2022/08/30 04:53:58;;;;;;;10.50;8.63;;;;;;;;;;5015349;28;20915;-64
2022/08/30 04:56:25;;;;;;;15.03;8.00;;;;;;;;;;5015456;28;20546;-74
2022/08/30 04:58:52;;;;;;;12.60;8.57;;;;;;;;;;5015296;28;20400;-64
2022/08/30 05:01:23;;;;;;;9.60;8.67;;;;;;;;;;5015211;28;20935;-71
2022/08/30 05:03:49;;;;;;;8.97;8.03;;;;;;;;;;5015252;28;20448;-64
2022/08/30 05:06:15;;;;;;;10.93;8.87;;;;;;;;;;5014995;28;20915;-77
2022/08/30 05:08:42;;;;;;;10.80;9.80;;;;;;;;;;5015111;28;20400;-64
2022/08/30 05:11:08;;;;;;;9.10;8.20;;;;;;;;;;5015133;28;20927;-63
2022/08/30 05:13:34;;;;;;;9.80;8.80;;;;;;;;;;5014612;28;20393;-64
2022/08/30 05:16:01;;;;;;;9.33;8.40;;;;;;;;;;5014755;28;20796;-64
2022/08/30 05:18:27;;;;;;;9.13;8.27;;;;;;;;;;5014918;28;20410;-77
2022/08/30 05:21:03;;;;;;;9.60;8.53;;;;;;;;;;5014968;28;20519;-64
2022/08/30 05:23:29;;;;;;;8.70;7.90;;;;;;;;;;5014885;28;20476;-74
2022/08/30 05:25:55;;;;;;;9.40;8.50;;;;;;;;;;5014809;28;20403;-73
2022/08/30 05:28:21;;;;;;;9.47;8.30;;;;;;;;;;5014756;28;20897;-75
2022/08/30 05:30:47;;;;;;;11.33;8.67;;;;;;;;;;5014976;28;20406;-73
2022/08/30 05:33:12;;;;;;;8.63;7.83;;;;;;;;;;5014673;28;20772;-64
2022/08/30 05:35:39;;;;;;;11.07;9.50;;;;;;;;;;5014544;28;20486;-72
2022/08/30 05:38:05;;;;;;;9.40;7.63;;;;;;;;;;5014462;28;20784;-69
2022/08/30 05:40:31;;;;;;;12.53;8.33;;;;;;;;;;5014634;28;20437;-76
2022/08/30 05:42:57;;;;;;;11.63;7.90;;;;;;;;;;5014485;28;20411;-76
2022/08/30 05:45:23;;;;;;;7.83;7.10;;;;;;;;;;5014684;28;20403;-70
2022/08/30 05:47:49;;;;;;;8.77;7.23;;;;;;;;;;5014591;28;20909;-64
2022/08/30 05:50:15;;;;;;;11.00;8.03;;;;;;;;;;5014560;28;20506;-77
2022/08/30 05:52:43;;;;;;;8.27;7.47;;;;;;;;;;5014155;28;20470;-64
2022/08/30 05:55:10;;;;;;;8.87;7.43;;;;;;;;;;5014451;28;20469;-70
2022/08/30 05:57:37;;;;;;;11.43;7.33;;;;;;;;;;5014200;28;20506;-78
2022/08/30 06:00:09;;;;;;;8.10;7.27;;;;;;;;;;5014143;28;20470;-77
2022/08/30 06:02:35;;;;;;;11.00;7.90;;;;;;;;;;5014182;28;20500;-70
2022/08/30 06:05:03;;;;;;;10.10;7.17;;;;;;;;;;5014387;28;20406;-71
2022/08/30 06:07:29;;;;;;;7.83;7.03;;;;;;;;;;5014064;28;20469;-64
2022/08/30 06:09:55;;;;;;;12.53;7.10;;;;;;;;;;5014047;28;20813;-65
2022/08/30 06:12:21;;;;;;;9.20;7.30;;;;;;;;;;5014066;28;20416;-77
2022/08/30 06:14:47;;;;;;;7.93;7.23;;;;;;;;;;5014001;28;20457;-81
2022/08/30 06:17:13;;;;;;;10.23;7.10;;;;;;;;;;5013862;28;20558;-72
2022/08/30 06:19:39;;;;;;;7.30;6.60;;;;;;;;;;5029434;28;20460;-65
2022/08/30 06:22:05;;;;;;;8.60;7.43;;;;;;;;;;5013812;28;20404;-65
2022/08/30 06:24:31;;;;;;;9.90;7.60;;;;;;;;;;5013735;28;20415;-67
2022/08/30 06:26:57;;;;;;;7.97;7.07;;;;;;;;;;5013004;28;20415;-65
2022/08/30 06:29:23;;;;;;;13.40;6.97;;;;;;;;;;5013793;28;20421;-66
2022/08/30 06:31:49;;;;;;;7.80;7.10;;;;;;;;;;5013642;28;20408;-72
2022/08/30 06:34:16;;;;;;;10.10;7.10;;;;;;;;;;5013729;28;20502;-84
2022/08/30 06:36:42;;;;;;;9.93;7.70;;;;;;;;;;5013737;28;20955;-66
2022/08/30 06:39:08;;;;;;;8.43;7.73;;;;;;;;;;5013784;28;20412;-80
2022/08/30 06:41:35;;;;;;;8.83;8.13;;;;;;;;;;5013643;28;20414;-66
2022/08/30 06:44:01;;;;;;;9.00;7.80;;;;;;;;;;5013911;28;20820;-64
2022/08/30 06:46:29;;;;;;;8.53;7.70;;;;;;;;;;5013847;28;20405;-66
2022/08/30 06:48:56;;;;;;;8.90;8.10;;;;;;;;;;5013813;28;20456;-65
2022/08/30 06:51:23;;;;;;;11.00;7.90;;;;;;;;;;5013379;28;20503;-65
2022/08/30 06:53:49;;;;;;;12.47;7.83;;;;;;;;;;5013519;28;20448;-64
2022/08/30 06:56:16;;;;;;;10.20;9.20;;;;;;;;;;5013463;28;20480;-64
2022/08/30 06:58:42;;;;;;;7.97;7.37;;;;;;;;;;5013550;28;20405;-64
2022/08/30 07:01:11;;;;;;;10.73;8.03;;;;;;;;;;5013769;28;20408;-65
2022/08/30 07:03:37;;;;;;;7.90;7.20;;;;;;;;;;5013667;28;20398;-65
2022/08/30 07:06:03;;;;;;;8.20;7.43;;;;;;;;;;5013605;28;20408;-65
2022/08/30 07:08:29;;;;;;;8.03;7.20;;;;;;;;;;5013403;28;20869;-65
2022/08/30 07:10:56;;;;;;;7.93;7.30;;;;;;;;;;5013388;28;20409;-65
2022/08/30 07:13:22;;;;;;;8.93;7.80;;;;;;;;;;5013398;28;20416;-64
2022/08/30 07:15:49;;;;;;;11.53;7.43;;;;;;;;;;5013321;28;20458;-65
2022/08/30 07:21:05;;;;;;;7.73;6.87;;;;;;;;;;5013298;28;20390;-64
2022/08/30 07:23:31;;;;;;;14.33;7.80;;;;;;;;;;5013041;28;20407;-64
2022/08/30 07:25:57;;;;;;;7.30;6.60;;;;;;;;;;5012970;28;20870;-78
2022/08/30 07:28:23;;;;;;;9.93;6.53;;;;;;;;;;5012928;28;20770;-64
2022/08/30 07:30:49;;;;;;;6.83;6.13;;;;;;;;;;5012938;28;20410;-78
2022/08/30 07:33:15;;;;;;;6.80;5.47;;;;;;;;;;5013184;28;20395;-74
2022/08/30 07:35:42;;;;;;;10.63;5.90;;;;;;;;;;5013055;28;20454;-76
2022/08/30 07:38:12;;;;;;;6.47;5.00;;;;;;;;;;5015231;28;20416;-63
2022/08/30 07:40:38;;;;;;;5.63;5.07;;;;;;;;;;5016769;28;20399;-79
2022/08/30 07:43:03;;;;;;;12.40;4.07;;;;;;;;;;5016646;28;20469;-64
2022/08/30 07:45:29;;;;;;;10.23;5.73;;;;;;;;;;5016609;28;20412;-76
2022/08/30 07:47:56;;;;;;;7.03;4.80;;;;;;;;;;5016627;28;20422;-64
2022/08/30 07:50:22;;;;;;;5.53;5.00;;;;;;;;;;5016613;28;20973;-64
2022/08/30 07:52:48;;;;;;;6.33;5.80;;;;;;;;;;5016381;28;20477;-69
2022/08/30 07:55:15;;;;;;;7.20;4.90;;;;;;;;;;5016445;28;20957;-64
2022/08/30 07:57:41;;;;;;;7.43;5.30;;;;;;;;;;5016466;28;20546;-69
2022/08/30 08:00:08;;;;;;;5.50;5.00;;;;;;;;;;5016356;28;20405;-64
2022/08/30 08:02:34;;;;;;;9.60;5.70;;;;;;;;;;5016222;28;20417;-64
2022/08/30 08:05:00;;;;;;;5.83;5.33;;;;;;;;;;5016304;28;20404;-74
2022/08/30 08:07:26;;;;;;;6.87;5.27;;;;;;;;;;5016261;28;20874;-64
2022/08/30 08:09:52;;;;;;;6.13;5.10;;;;;;;;;;5016200;28;20454;-65
2022/08/30 08:12:18;;;;;;;6.33;5.50;;;;;;;;;;5016180;28;20408;-75
2022/08/30 08:14:44;;;;;;;11.43;5.20;;;;;;;;;;5016348;28;20516;-64
2022/08/30 08:17:10;;;;;;;12.30;5.57;;;;;;;;;;5015806;28;20554;-64
2022/08/30 08:19:36;;;;;;;8.40;5.97;;;;;;;;;;5016100;28;20463;-65
2022/08/30 08:22:01;;;;;;;9.77;5.77;;;;;;;;;;5015936;28;20882;-64
2022/08/30 08:24:28;;;;;;;6.60;5.47;;;;;;;;;;5015938;28;20410;-64
2022/08/30 08:26:54;;;;;;;8.23;5.97;;;;;;;;;;5015870;28;20417;-63
2022/08/30 08:29:21;;;;;;;12.33;5.83;;;;;;;;;;5015790;28;20412;-64
2022/08/30 08:31:47;;;;;;;11.83;5.70;;;;;;;;;;5015672;28;20409;-66
2022/08/30 08:34:13;;;;;;;6.67;5.97;;;;;;;;;;5015509;28;20414;-65
2022/08/30 08:36:39;;;;;;;8.83;6.00;;;;;;;;;;5015431;28;20488;-64
2022/08/30 08:39:06;;;;;;;8.20;7.50;;;;;;;;;;5015632;28;20430;-65
2022/08/30 08:41:49;;;;;;;7.30;6.60;;;;;;;;;;5015134;28;20420;-75
2022/08/30 08:44:34;;;;;;;6.63;6.13;;;;;;;;;;5014875;28;20792;-64
2022/08/30 08:46:59;;;;;;;9.07;6.50;;;;;;;;;;5014665;28;20472;-64
2022/08/30 08:49:25;;;;;;;6.07;5.63;;;;;;;;;;5014016;28;20810;-75
2022/08/30 08:54:48;;;;;;;8.10;5.63;;;;;;;;;;5015619;28;20412;-64
2022/08/30 08:57:14;;;;;;;13.47;6.70;;;;;;;;;;5015303;28;20461;-64
2022/08/30 08:59:42;;;;;;;6.90;6.20;;;;;;;;;;5015378;28;20417;-64
2022/08/30 09:02:18;;;;;;;8.07;6.03;;;;;;;;;;5015247;28;20457;-64
2022/08/30 09:04:44;;;;;;;9.03;5.67;;;;;;;;;;5015684;28;20416;-65
2022/08/30 09:07:25;;;;;;;20.93;6.43;;;;;;;;;;5015088;28;20467;-64
2022/08/30 09:09:51;;;;;;;9.97;5.60;;;;;;;;;;5015154;28;20403;-67
2022/08/30 09:12:17;;;;;;;15.37;6.60;;;;;;;;;;5015067;28;20420;-65
2022/08/30 09:14:46;;;;;;;5.77;5.23;;;;;;;;;;5015020;28;20395;-63
2022/08/30 09:17:12;;;;;;;7.00;5.83;;;;;;;;;;5014827;28;20474;-76
2022/08/30 09:19:39;;;;;;;6.33;5.70;;;;;;;;;;5014973;28;20445;-64
2022/08/30 09:22:25;;;;;;;5.63;5.23;;;;;;;;;;5014795;28;20812;-65
2022/08/30 09:25:21;;;;;;;6.77;6.13;;;;;;;;;;5014802;28;20402;-64
2022/08/30 09:27:48;;;;;;;9.40;5.73;;;;;;;;;;5014742;28;20517;-63
2022/08/30 09:30:19;;;;;;;6.50;5.90;;;;;;;;;;5014802;28;20415;-63
2022/08/30 09:33:01;;;;;;;8.03;5.90;;;;;;;;;;5014660;28;20493;-70
2022/08/30 09:35:37;;;;;;;13.97;5.77;;;;;;;;;;5014526;28;20823;-71
2022/08/30 09:38:07;;;;;;;9.13;5.70;;;;;;;;;;5014613;28;20457;-71
2022/08/30 09:40:44;;;;;;;5.60;4.97;;;;;;;;;;5014513;28;20412;-71
2022/08/30 09:43:20;;;;;;;5.53;5.03;;;;;;;;;;5014324;28;20416;-74
2022/08/30 09:45:48;;;;;;;5.80;5.40;;;;;;;;;;5014644;28;20411;-72
2022/08/30 09:48:22;;;;;;;5.50;5.10;;;;;;;;;;5014431;28;20472;-72
2022/08/30 09:50:56;;;;;;;5.73;5.43;;;;;;;;;;5014728;28;20412;-75
2022/08/30 09:53:24;;;;;;;5.80;5.30;;;;;;;;;;5014398;28;20422;-76
2022/08/30 09:55:53;;;;;;;6.20;5.80;;;;;;;;;;5014298;28;20473;-74
2022/08/30 09:58:38;;;;;;;6.07;5.77;;;;;;;;;;5014270;28;20396;-72
2022/08/30 10:01:10;;;;;;;6.73;6.27;;;;;;;;;;5014098;28;20412;-72
2022/08/30 10:03:39;;;;;;;6.73;6.23;;;;;;;;;;5014173;28;20401;-69
2022/08/30 10:06:09;;;;;;;7.60;5.83;;;;;;;;;;5014097;28;20417;-71
2022/08/30 10:08:44;;;;;;;6.23;5.83;;;;;;;;;;5014125;28;20443;-73
2022/08/30 10:11:22;;;;;;;10.33;6.20;;;;;;;;;;5014027;28;20461;-72
2022/08/30 10:13:57;;;;;;;8.17;6.63;;;;;;;;;;5014027;28;20841;-72
2022/08/30 10:16:27;;;;;;;12.47;6.20;;;;;;;;;;5013907;28;20476;-73
2022/08/30 10:19:02;;;;;;;10.33;6.33;;;;;;;;;;5013954;28;20403;-72
2022/08/30 10:21:35;;;;;;;8.03;6.03;;;;;;;;;;5013917;28;20409;-73
2022/08/30 10:24:03;;;;;;;9.27;6.40;;;;;;;;;;5013867;28;20401;-70
2022/08/30 10:26:47;;;;;;;7.60;5.90;;;;;;;;;;5013948;28;20431;-71
2022/08/30 10:29:16;;;;;;;10.90;5.83;;;;;;;;;;5013804;28;20409;-71
2022/08/30 10:31:47;;;;;;;5.97;5.37;;;;;;;;;;5013811;28;20397;-70
2022/08/30 10:34:19;;;;;;;7.93;5.00;;;;;;;;;;5014117;28;20440;-72
2022/08/30 10:37:06;;;;;;;5.30;5.00;;;;;;;;;;5013766;28;20831;-70
2022/08/30 10:39:36;;;;;;;7.93;5.57;;;;;;;;;;5013845;28;20412;-72
2022/08/30 10:42:06;;;;;;;7.70;5.73;;;;;;;;;;5013673;28;20404;-71
2022/08/30 10:44:35;;;;;;;6.50;6.00;;;;;;;;;;5013753;28;20487;-72
2022/08/30 10:47:01;;;;;;;6.30;5.70;;;;;;;;;;5013728;28;20401;-77
2022/08/30 10:49:35;;;;;;;5.90;4.90;;;;;;;;;;5013864;28;20747;-73
2022/08/30 10:52:17;;;;;;;9.93;5.73;;;;;;;;;;5013602;28;20503;-71
2022/08/30 10:54:49;;;;;;;5.20;4.80;;;;;;;;;;5013594;28;20405;-71
2022/08/30 10:57:16;;;;;;;9.23;5.30;;;;;;;;;;5013524;28;20473;-71
2022/08/30 10:59:47;;;;;;;8.07;5.17;;;;;;;;;;5013585;28;20500;-73
2022/08/30 11:02:13;;;;;;;8.17;5.83;;;;;;;;;;5013483;28;20915;-69
2022/08/30 11:05:02;;;;;;;8.07;5.00;;;;;;;;;;5013509;28;20444;-69
2022/08/30 11:07:42;;;;;;;5.67;5.27;;;;;;;;;;5013750;28;20779;-70
2022/08/30 11:10:17;;;;;;;5.57;5.07;;;;;;;;;;5013577;28;20421;-71
2022/08/30 11:12:43;;;;;;;5.30;4.80;;;;;;;;;;5014987;28;20824;-69
2022/08/30 11:15:15;;;;;;;5.50;5.20;;;;;;;;;;5017337;28;20417;-70
2022/08/30 11:17:46;;;;;;;7.53;5.30;;;;;;;;;;5017209;28;20425;-70
2022/08/30 11:20:23;;;;;;;4.37;4.07;;;;;;;;;;5017069;28;20408;-69
2022/08/30 11:23:08;;;;;;;5.73;5.10;;;;;;;;;;5017046;28;20475;-70
2022/08/30 11:25:49;;;;;;;5.63;5.17;;;;;;;;;;5017116;28;20439;-70
2022/08/30 11:28:35;;;;;;;5.23;4.83;;;;;;;;;;5016940;28;20408;-69
2022/08/30 11:31:27;;;;;;;5.30;5.00;;;;;;;;;;5016858;28;20918;-71
2022/08/30 11:33:58;;;;;;;5.50;4.97;;;;;;;;;;5017388;28;20444;-69
2022/08/30 11:36:27;;;;;;;4.97;4.57;;;;;;;;;;5016892;28;20562;-69
2022/08/30 11:38:52;;;;;;;6.00;5.40;;;;;;;;;;5016896;28;20401;-70
2022/08/30 11:41:31;;;;;;;8.03;4.40;;;;;;;;;;5016808;28;20496;-69
2022/08/30 11:44:11;;;;;;;5.10;4.80;;;;;;;;;;5016839;28;20172;-69
2022/08/30 11:46:39;;;;;;;9.50;5.30;;;;;;;;;;5016921;28;20412;-69
2022/08/30 11:49:14;;;;;;;4.73;4.50;;;;;;;;;;5016873;28;20467;-70
2022/08/30 11:51:45;;;;;;;5.60;5.30;;;;;;;;;;5016499;28;20543;-68
2022/08/30 11:54:14;;;;;;;6.60;6.10;;;;;;;;;;5016588;28;20420;-68
2022/08/30 11:56:40;;;;;;;6.07;5.57;;;;;;;;;;5016470;28;20555;-68
2022/08/30 11:59:06;;;;;;;7.13;5.47;;;;;;;;;;5016503;28;20513;-67
2022/08/30 12:01:34;;;;;;;4.53;4.30;;;;;;;;;;5016459;28;20590;-67
2022/08/30 12:04:10;;;;;;;7.83;5.70;;;;;;;;;;5016412;28;20405;-67
2022/08/30 12:06:48;;;;;;;7.33;6.50;;;;;;;;;;5016285;28;20491;-67
2022/08/30 12:09:23;;;;;;;5.70;5.20;;;;;;;;;;5016351;28;20409;-67
2022/08/30 12:11:58;;;;;;;5.20;4.90;;;;;;;;;;5016291;28;20488;-67
2022/08/30 12:14:39;;;;;;;5.30;5.00;;;;;;;;;;5016451;28;20392;-68
2022/08/30 12:20:04;;;;;;;5.50;5.10;;;;;;;;;;5016033;28;20400;-75
2022/08/30 12:22:36;;;;;;;5.53;5.20;;;;;;;;;;5015844;28;20508;-67
2022/08/30 12:25:12;;;;;;;5.00;4.50;;;;;;;;;;5015573;28;20396;-67
2022/08/30 12:27:38;;;;;;;7.60;5.20;;;;;;;;;;5015823;28;20728;-66
2022/08/30 12:30:06;;;;;;;6.80;5.77;;;;;;;;;;5015935;28;20488;-68
2022/08/30 12:32:32;;;;;;;6.70;4.80;;;;;;;;;;5015743;28;20644;-68
2022/08/30 12:34:59;;;;;;;5.93;5.50;;;;;;;;;;5015629;28;20899;-67
2022/08/30 12:37:28;;;;;;;5.33;4.93;;;;;;;;;;5015857;28;20564;-67
2022/08/30 12:40:01;;;;;;;5.30;5.00;;;;;;;;;;5015748;28;20769;-67
2022/08/30 12:42:29;;;;;;;5.10;4.90;;;;;;;;;;5015792;28;20500;-69
2022/08/30 12:44:56;;;;;;;7.70;5.77;;;;;;;;;;5015329;28;20400;-69
2022/08/30 12:47:27;;;;;;;13.73;6.53;;;;;;;;;;5015663;28;20410;-65
2022/08/30 12:49:53;;;;;;;5.57;5.20;;;;;;;;;;5015328;28;20768;-67
2022/08/30 12:52:30;;;;;;;5.70;5.10;;;;;;;;;;5015322;28;20472;-68
2022/08/30 12:55:04;;;;;;;5.80;5.40;;;;;;;;;;5015372;28;20451;-67
2022/08/30 12:57:36;;;;;;;5.80;5.20;;;;;;;;;;5015303;28;20830;-67
2022/08/30 13:00:03;;;;;;;5.90;5.33;;;;;;;;;;5015318;28;20404;-67
2022/08/30 13:02:44;;;;;;;5.07;4.73;;;;;;;;;;5015389;28;20504;-68
2022/08/30 13:05:33;;;;;;;5.63;5.33;;;;;;;;;;5015155;28;20400;-67
2022/08/30 13:08:10;;;;;;;10.20;5.60;;;;;;;;;;5015060;28;20402;-68
2022/08/30 13:10:36;;;;;;;5.03;4.83;;;;;;;;;;5015051;28;20385;-69
2022/08/30 13:13:03;;;;;;;5.70;5.27;;;;;;;;;;5015132;28;20416;-68
2022/08/30 13:15:34;;;;;;;8.43;5.37;;;;;;;;;;5014893;28;20475;-68
2022/08/30 13:18:11;;;;;;;5.83;5.23;;;;;;;;;;5014827;28;20405;-68
2022/08/30 13:20:37;;;;;;;5.67;5.37;;;;;;;;;;5014769;28;20760;-68
2022/08/30 13:23:03;;;;;;;5.93;5.50;;;;;;;;;;5015032;28;20402;-68
2022/08/30 13:25:29;;;;;;;4.93;4.83;;;;;;;;;;5014831;28;20496;-69
2022/08/30 13:27:55;;;;;;;8.13;5.37;;;;;;;;;;5014658;28;20424;-68
2022/08/30 13:30:21;;;;;;;5.90;5.43;;;;;;;;;;5014766;28;20405;-69
2022/08/30 13:32:47;;;;;;;5.40;4.97;;;;;;;;;;5014858;28;20409;-67
2022/08/30 13:35:13;;;;;;;8.70;5.13;;;;;;;;;;5014246;28;20412;-67
2022/08/30 13:37:40;;;;;;;4.73;4.63;;;;;;;;;;5014186;28;20472;-68
2022/08/30 13:40:07;;;;;;;10.10;6.00;;;;;;;;;;5014646;28;20609;-68
2022/08/30 13:42:33;;;;;;;5.20;4.70;;;;;;;;;;5014504;28;20875;-68
2022/08/30 13:44:59;;;;;;;5.83;5.30;;;;;;;;;;5014474;28;20404;-68
2022/08/30 13:47:25;;;;;;;6.07;5.80;;;;;;;;;;5014648;28;20444;-69
2022/08/30 13:49:51;;;;;;;5.87;5.50;;;;;;;;;;5014448;28;20401;-68
2022/08/30 13:52:21;;;;;;;6.10;5.40;;;;;;;;;;5014202;28;20460;-68
2022/08/30 13:54:47;;;;;;;5.70;5.17;;;;;;;;;;5014405;28;20170;-67
2022/08/30 13:57:13;;;;;;;7.07;6.53;;;;;;;;;;5014326;28;20686;-67
2022/08/30 13:59:39;;;;;;;6.40;5.63;;;;;;;;;;5014438;28;20401;-68
2022/08/30 14:02:05;;;;;;;7.00;6.30;;;;;;;;;;5014218;28;20483;-71
2022/08/30 14:04:31;;;;;;;6.33;5.87;;;;;;;;;;5014315;28;20409;-69
2022/08/30 14:06:57;;;;;;;5.10;4.70;;;;;;;;;;5014146;28;20760;-66
2022/08/30 14:09:23;;;;;;;5.20;5.00;;;;;;;;;;5014119;28;20544;-70
2022/08/30 14:11:49;;;;;;;5.30;4.80;;;;;;;;;;5014175;28;20405;-68
2022/08/30 14:14:15;;;;;;;5.07;4.70;;;;;;;;;;5014162;28;20401;-67
2022/08/30 14:16:42;;;;;;;5.47;5.17;;;;;;;;;;5014059;28;20464;-67
2022/08/30 14:19:11;;;;;;;5.87;5.20;;;;;;;;;;5013975;28;20447;-67
2022/08/30 14:21:37;;;;;;;5.17;4.87;;;;;;;;;;5013946;28;20440;-68
2022/08/30 14:24:05;;;;;;;5.13;4.93;;;;;;;;;;5014091;28;20409;-68
2022/08/30 14:26:38;;;;;;;9.93;4.77;;;;;;;;;;5013967;28;20455;-69
2022/08/30 14:29:05;;;;;;;5.77;5.43;;;;;;;;;;5013990;28;20413;-69
2022/08/30 14:31:31;;;;;;;5.43;5.13;;;;;;;;;;5013906;28;20496;-67
2022/08/30 14:33:57;;;;;;;5.20;4.80;;;;;;;;;;5014034;28;20480;-66
2022/08/30 14:36:23;;;;;;;5.20;4.80;;;;;;;;;;5013778;28;20828;-67
2022/08/30 14:38:49;;;;;;;5.20;4.60;;;;;;;;;;5013785;28;20397;-67
2022/08/30 14:41:15;;;;;;;5.80;5.30;;;;;;;;;;5013703;28;20409;-67
2022/08/30 14:43:41;;;;;;;5.10;4.80;;;;;;;;;;5013756;28;20492;-68
2022/08/30 14:46:08;;;;;;;5.20;4.80;;;;;;;;;;5013713;28;20455;-67
2022/08/30 14:48:35;;;;;;;4.80;4.43;;;;;;;;;;5016264;28;20892;-72
2022/08/30 14:51:01;;;;;;;4.97;4.80;;;;;;;;;;5017290;28;20488;-69
2022/08/30 14:53:27;;;;;;;5.30;4.80;;;;;;;;;;5017700;28;21030;-70